createdAt,value
2016-04-16T00:00:06.006Z,8.08
2016-04-16T00:00:53.305Z,8.05
2016-04-16T00:02:18.999Z,8.16
2016-04-16T00:03:28.611Z,8.16
2016-04-16T00:04:25.114Z,8.16
2016-04-16T00:05:34.210Z,8.11
2016-04-16T00:06:31.635Z,8.17
2016-04-16T00:07:34.418Z,8.18
2016-04-16T00:09:06.202Z,8.11
2016-04-16T00:09:44.549Z,8.11
2016-04-16T00:10:18.879Z,8.09
2016-04-16T00:11:50.226Z,8.06
2016-04-16T00:12:28.322Z,8.06
2016-04-16T00:13:53.996Z,8.01
2016-04-16T00:14:37.921Z,8.01
2016-04-16T00:15:37.940Z,7.81
2016-04-16T00:16:39.412Z,7.84
2016-04-16T00:18:03.680Z,7.84
2016-04-16T00:18:50.729Z,7.84
2016-04-16T00:20:05.685Z,7.72
2016-04-16T00:20:57.047Z,7.78
2016-04-16T00:22:12.334Z,7.81
2016-04-16T00:23:06.615Z,7.74
2016-04-16T00:25:37.951Z,7.77
2016-04-16T00:26:21.829Z,7.67
2016-04-16T00:27:21.847Z,7.62
2016-04-16T00:28:21.881Z,7.61
2016-04-16T00:29:47.540Z,7.48
2016-04-16T00:30:25.808Z,7.53
2016-04-16T00:31:25.827Z,7.51
2016-04-16T00:32:25.829Z,7.51
2016-04-16T00:33:25.847Z,7.47
2016-04-16T00:34:32.132Z,7.56
2016-04-16T00:35:32.213Z,7.5
2016-04-16T00:36:45.106Z,7.4
2016-04-16T00:37:48.171Z,7.47
2016-04-16T00:38:48.189Z,7.41
2016-04-16T00:40:00.957Z,7.39
2016-04-16T00:40:49.632Z,7.31
2016-04-16T00:42:07.432Z,7.43
2016-04-16T00:43:01.590Z,7.29
2016-04-16T00:45:10.923Z,7.41
2016-04-16T00:45:23.489Z,7.25
2016-04-16T00:46:23.507Z,7.32
2016-04-16T00:47:36.276Z,7.33
2016-04-16T00:48:23.529Z,7.23
2016-04-16T00:49:23.548Z,7.31
2016-04-16T00:50:23.612Z,7.33
2016-04-16T00:51:23.584Z,7.15
2016-04-16T00:52:29.851Z,7.23
2016-04-16T00:53:29.871Z,7.19
2016-04-16T00:54:36.373Z,7.26
2016-04-16T00:55:23.642Z,7.18
2016-04-16T00:56:42.879Z,7.19
2016-04-16T00:57:23.709Z,7.18
2016-04-16T00:58:42.915Z,7.18
2016-04-16T00:59:29.995Z,7.13
2016-04-16T01:00:42.952Z,7.18
2016-04-16T01:01:23.813Z,7.18
2016-04-16T01:02:23.769Z,7.08
2016-04-16T01:03:23.803Z,7.19
2016-04-16T01:04:55.103Z,7.04
2016-04-16T01:05:38.950Z,7.07
2016-04-16T01:06:38.983Z,7.03
2016-04-16T01:07:45.252Z,7.04
2016-04-16T01:08:39.019Z,7.01
2016-04-16T01:09:39.054Z,7.03
2016-04-16T01:10:39.041Z,7.01
2016-04-16T01:11:45.371Z,7.07
2016-04-16T01:12:39.062Z,7.05
2016-04-16T01:13:39.204Z,7.07
2016-04-16T01:14:39.083Z,7.05
2016-04-16T01:15:45.382Z,7.01
2016-04-16T01:16:39.151Z,7
2016-04-16T01:17:51.887Z,7.07
2016-04-16T01:18:39.171Z,7.1
2016-04-16T01:19:58.393Z,7.1
2016-04-16T01:20:45.505Z,7.07
2016-04-16T01:22:04.899Z,7.11
2016-04-16T01:22:39.354Z,7.13
2016-04-16T01:23:39.248Z,7.04
2016-04-16T01:24:39.266Z,7.05
2016-04-16T01:25:52.019Z,7.03
2016-04-16T01:26:39.380Z,7.04
2016-04-16T01:27:39.320Z,6.97
2016-04-16T01:28:52.073Z,7.1
2016-04-16T01:29:39.358Z,7.07
2016-04-16T01:30:52.094Z,7.03
2016-04-16T01:31:39.378Z,7.11
2016-04-16T01:32:52.131Z,7.01
2016-04-16T01:33:52.180Z,7.14
2016-04-16T01:35:05.121Z,7.14
2016-04-16T01:35:39.483Z,7.18
2016-04-16T01:37:05.126Z,7.26
2016-04-16T01:37:49.004Z,7.28
2016-04-16T01:39:14.696Z,7.28
2016-04-16T01:39:58.571Z,7.25
2016-04-16T01:41:17.780Z,7.23
2016-04-16T01:41:58.608Z,7.26
2016-04-16T01:43:24.301Z,7.29
2016-04-16T01:43:59.238Z,7.26
2016-04-16T01:46:13.872Z,7.22
2016-04-16T01:47:13.891Z,7.25
2016-04-16T01:48:13.909Z,7.31
2016-04-16T01:49:13.943Z,7.39
2016-04-16T01:50:13.961Z,7.36
2016-04-16T01:51:20.307Z,7.36
2016-04-16T01:52:20.247Z,7.47
2016-04-16T01:53:14.000Z,7.51
2016-04-16T01:54:14.018Z,7.43
2016-04-16T01:55:14.053Z,7.44
2016-04-16T01:56:20.306Z,7.56
2016-04-16T01:57:14.073Z,7.61
2016-04-16T01:58:14.076Z,7.66
2016-04-16T01:59:20.344Z,7.75
2016-04-16T02:00:20.378Z,7.74
2016-04-16T02:01:14.130Z,7.87
2016-04-16T02:02:26.868Z,7.84
2016-04-16T02:03:20.531Z,7.84
2016-04-16T02:04:33.377Z,7.93
2016-04-16T02:05:15.661Z,8.03
2016-04-16T02:06:14.211Z,7.95
2016-04-16T02:07:14.214Z,7.96
2016-04-16T02:08:14.231Z,8.06
2016-04-16T02:09:14.266Z,8.05
2016-04-16T02:10:14.284Z,8.11
2016-04-16T02:11:21.975Z,8.08
2016-04-16T02:12:14.321Z,8.05
2016-04-16T02:13:14.933Z,8.03
2016-04-16T02:14:15.764Z,8.24
2016-04-16T02:15:14.969Z,8.13
2016-04-16T02:16:14.378Z,8.17
2016-04-16T02:17:14.412Z,8.13
2016-04-16T02:18:14.415Z,8.24
2016-04-16T02:19:27.168Z,8.21
2016-04-16T02:20:14.467Z,8.21
2016-04-16T02:21:40.126Z,8.32
2016-04-16T02:22:14.475Z,8.32
2016-04-16T02:23:45.805Z,8.34
2016-04-16T02:24:24.074Z,8.36
2016-04-16T02:25:24.123Z,8.38
2016-04-16T02:26:24.095Z,8.38
2016-04-16T02:27:24.191Z,8.45
2016-04-16T02:28:24.131Z,8.41
2016-04-16T02:29:24.166Z,8.38
2016-04-16T02:30:24.168Z,8.44
2016-04-16T02:31:24.202Z,8.5
2016-04-16T02:32:24.236Z,8.53
2016-04-16T02:33:24.239Z,8.52
2016-04-16T02:34:30.491Z,8.5
2016-04-16T02:35:24.291Z,8.5
2016-04-16T02:36:24.356Z,8.57
2016-04-16T02:37:30.562Z,8.56
2016-04-16T02:38:24.362Z,8.56
2016-04-16T02:39:24.317Z,8.53
2016-04-16T02:40:24.414Z,8.57
2016-04-16T02:41:24.353Z,8.56
2016-04-16T02:42:24.403Z,8.61
2016-04-16T02:43:24.390Z,8.66
2016-04-16T02:44:24.449Z,8.6
2016-04-16T02:45:24.511Z,8.66
2016-04-16T02:46:24.556Z,8.66
2016-04-16T02:47:24.618Z,8.66
2016-04-16T02:48:24.694Z,8.63
2016-04-16T02:49:30.994Z,8.68
2016-04-16T02:50:37.356Z,8.64
2016-04-16T02:51:25.389Z,8.69
2016-04-16T02:52:50.501Z,8.69
2016-04-16T02:53:34.411Z,8.74
2016-04-16T02:54:34.419Z,8.71
2016-04-16T02:55:34.442Z,8.68
2016-04-16T02:56:34.467Z,8.78
2016-04-16T02:57:34.553Z,8.71
2016-04-16T02:58:34.499Z,8.71
2016-04-16T02:59:34.519Z,8.75
2016-04-16T03:00:34.556Z,8.75
2016-04-16T03:01:34.560Z,8.78
2016-04-16T03:02:40.847Z,8.77
2016-04-16T03:03:42.382Z,8.72
2016-04-16T03:04:34.619Z,8.71
2016-04-16T03:05:47.420Z,8.69
2016-04-16T03:06:34.689Z,8.77
2016-04-16T03:07:53.896Z,8.81
2016-04-16T03:08:40.962Z,8.78
2016-04-16T03:10:06.027Z,8.84
2016-04-16T03:10:56.311Z,8.82
2016-04-16T03:12:15.615Z,8.86
2016-04-16T03:12:49.943Z,8.84
2016-04-16T03:13:56.259Z,8.79
2016-04-16T03:14:49.995Z,8.77
2016-04-16T03:15:50.029Z,8.72
2016-04-16T03:16:50.017Z,8.72
2016-04-16T03:17:50.034Z,8.77
2016-04-16T03:18:50.131Z,8.81
2016-04-16T03:20:02.805Z,8.75
2016-04-16T03:21:02.825Z,8.78
2016-04-16T03:21:50.092Z,8.81
2016-04-16T03:22:50.142Z,8.75
2016-04-16T03:24:15.850Z,8.68
2016-04-16T03:24:50.178Z,8.68
2016-04-16T03:26:52.793Z,8.6
2016-04-16T03:27:05.340Z,8.57
2016-04-16T03:28:05.374Z,8.6
2016-04-16T03:29:05.393Z,8.52
2016-04-16T03:30:18.148Z,8.52
2016-04-16T03:31:05.538Z,8.46
2016-04-16T03:32:24.638Z,8.46
2016-04-16T03:33:11.716Z,8.41
2016-04-16T03:34:05.452Z,8.42
2016-04-16T03:35:05.580Z,8.46
2016-04-16T03:36:11.770Z,8.36
2016-04-16T03:37:11.789Z,8.39
2016-04-16T03:38:05.542Z,8.42
2016-04-16T03:39:18.281Z,8.21
2016-04-16T03:40:11.843Z,8.23
2016-04-16T03:41:24.803Z,8.16
2016-04-16T03:42:18.351Z,8.05
2016-04-16T03:43:36.934Z,7.87
2016-04-16T03:44:24.857Z,7.95
2016-04-16T03:45:36.970Z,7.83
2016-04-16T03:46:31.378Z,7.88
2016-04-16T03:48:05.725Z,7.81
2016-04-16T03:49:05.572Z,7.78
2016-04-16T03:50:05.902Z,7.78
2016-04-16T03:51:05.780Z,7.77
2016-04-16T03:52:05.797Z,7.87
2016-04-16T03:53:12.083Z,7.81
2016-04-16T03:54:05.835Z,7.85
2016-04-16T03:55:05.666Z,7.96
2016-04-16T03:56:05.840Z,8.02
2016-04-16T03:57:18.627Z,8.16
2016-04-16T03:58:12.189Z,8.23
2016-04-16T03:59:31.601Z,8.28
2016-04-16T04:00:18.681Z,8.31
2016-04-16T04:01:31.715Z,8.35
2016-04-16T04:02:25.171Z,8.38
2016-04-16T04:03:06.109Z,8.34
2016-04-16T04:04:37.302Z,8.42
2016-04-16T04:05:21.179Z,8.45
2016-04-16T04:06:40.385Z,8.49
2016-04-16T04:07:21.809Z,8.57
2016-04-16T04:08:21.250Z,8.56
2016-04-16T04:09:21.237Z,8.57
2016-04-16T04:10:33.990Z,8.68
2016-04-16T04:11:21.884Z,8.71
2016-04-16T04:12:21.307Z,8.69
2016-04-16T04:13:27.576Z,8.71
2016-04-16T04:14:21.953Z,8.6
2016-04-16T04:15:27.612Z,8.5
2016-04-16T04:16:21.490Z,8.53
2016-04-16T04:17:34.133Z,8.41
2016-04-16T04:18:21.402Z,8.31
2016-04-16T04:19:47.092Z,8.41
2016-04-16T04:20:56.923Z,8.32
2016-04-16T04:22:06.473Z,8.31
2016-04-16T04:22:40.803Z,8.32
2016-04-16T04:24:55.996Z,8.31
2016-04-16T04:25:56.030Z,8.27
2016-04-16T04:27:27.988Z,8.38
2016-04-16T04:28:06.207Z,8.38
2016-04-16T04:29:37.525Z,8.54
2016-04-16T04:30:15.669Z,8.56
2016-04-16T04:32:11.983Z,8.71
2016-04-16T04:32:24.580Z,8.72
2016-04-16T04:33:24.582Z,8.78
2016-04-16T04:34:30.867Z,8.82
2016-04-16T04:35:24.838Z,8.93
2016-04-16T04:36:24.638Z,8.89
2016-04-16T04:37:30.938Z,8.99
2016-04-16T04:38:30.940Z,9.09
2016-04-16T04:39:24.771Z,9
2016-04-16T04:40:24.695Z,9.11
2016-04-16T04:41:24.745Z,9.18
2016-04-16T04:42:24.731Z,9.19
2016-04-16T04:43:31.032Z,9.3
2016-04-16T04:44:31.065Z,9.29
2016-04-16T04:45:24.787Z,9.39
2016-04-16T04:46:24.806Z,9.27
2016-04-16T04:47:24.823Z,9.44
2016-04-16T04:49:34.406Z,9.44
2016-04-16T04:50:34.425Z,9.44
2016-04-16T04:51:34.475Z,9.51
2016-04-16T04:52:34.462Z,9.47
2016-04-16T04:53:34.481Z,9.49
2016-04-16T04:54:34.499Z,9.58
2016-04-16T04:55:47.252Z,9.54
2016-04-16T04:56:34.535Z,9.58
2016-04-16T04:57:53.772Z,9.59
2016-04-16T04:58:40.837Z,9.63
2016-04-16T04:59:34.591Z,9.59
2016-04-16T05:00:34.608Z,9.62
2016-04-16T05:01:34.611Z,9.55
2016-04-16T05:02:47.411Z,9.58
2016-04-16T05:03:34.663Z,9.58
2016-04-16T05:04:53.869Z,9.63
2016-04-16T05:05:40.949Z,9.67
2016-04-16T05:06:34.718Z,9.67
2016-04-16T05:07:47.646Z,9.69
2016-04-16T05:08:34.743Z,9.76
2016-04-16T05:10:00.432Z,9.74
2016-04-16T05:10:41.045Z,9.76
2016-04-16T05:12:06.172Z,9.67
2016-04-16T05:12:34.816Z,9.74
2016-04-16T05:13:34.834Z,9.7
2016-04-16T05:14:47.602Z,9.76
2016-04-16T05:15:34.934Z,9.77
2016-04-16T05:16:34.904Z,9.73
2016-04-16T05:17:47.641Z,9.85
2016-04-16T05:18:34.909Z,9.72
2016-04-16T05:19:54.162Z,9.77
2016-04-16T05:20:38.165Z,9.81
2016-04-16T05:22:03.731Z,9.77
2016-04-16T05:22:39.531Z,9.84
2016-04-16T05:24:09.408Z,9.82
2016-04-16T05:24:41.004Z,9.82
2016-04-16T05:26:50.588Z,9.87
2016-04-16T05:28:53.203Z,9.94
2016-04-16T05:29:05.781Z,9.92
2016-04-16T05:30:05.783Z,9.92
2016-04-16T05:31:05.817Z,10.09
2016-04-16T05:32:18.573Z,10.07
2016-04-16T05:33:06.042Z,10.09
2016-04-16T05:34:31.546Z,10.17
2016-04-16T05:35:12.140Z,10.13
2016-04-16T05:36:37.208Z,10.12
2016-04-16T05:37:06.005Z,10.18
2016-04-16T05:38:06.071Z,10.21
2016-04-16T05:39:07.385Z,10.39
2016-04-16T05:40:05.966Z,10.48
2016-04-16T05:41:06.016Z,10.51
2016-04-16T05:42:06.035Z,10.46
2016-04-16T05:43:06.021Z,10.61
2016-04-16T05:44:07.462Z,10.67
2016-04-16T05:45:12.339Z,10.65
2016-04-16T05:46:25.126Z,10.79
2016-04-16T05:47:09.032Z,10.77
2016-04-16T05:48:28.226Z,10.75
2016-04-16T05:49:43.415Z,10.71
2016-04-16T05:50:15.181Z,10.72
2016-04-16T05:51:46.530Z,10.84
2016-04-16T05:52:24.783Z,10.8
2016-04-16T05:53:50.473Z,10.68
2016-04-16T05:54:28.756Z,10.71
2016-04-16T05:56:00.072Z,10.69
2016-04-16T05:56:38.512Z,10.77
2016-04-16T05:57:38.452Z,10.72
2016-04-16T05:58:38.502Z,10.62
2016-04-16T05:59:38.488Z,10.77
2016-04-16T06:00:38.601Z,10.8
2016-04-16T06:01:38.510Z,10.79
2016-04-16T06:02:38.560Z,10.72
2016-04-16T06:03:38.562Z,10.72
2016-04-16T06:04:38.596Z,10.75
2016-04-16T06:05:38.599Z,10.76
2016-04-16T06:06:38.632Z,10.86
2016-04-16T06:07:38.651Z,11
2016-04-16T06:08:38.685Z,11.1
2016-04-16T06:09:38.656Z,11.13
2016-04-16T06:10:38.690Z,11.23
2016-04-16T06:11:38.709Z,11.37
2016-04-16T06:12:38.743Z,11.48
2016-04-16T06:13:38.761Z,11.55
2016-04-16T06:14:38.763Z,11.74
2016-04-16T06:15:38.798Z,11.86
2016-04-16T06:16:38.816Z,12.11
2016-04-16T06:17:38.835Z,12.73
2016-04-16T06:18:38.853Z,13.4
2016-04-16T06:19:38.856Z,14.23
2016-04-16T06:20:39.076Z,15.14
2016-04-16T06:21:40.095Z,16.29
2016-04-16T06:22:38.925Z,16.83
2016-04-16T06:23:38.960Z,16.36
2016-04-16T06:24:38.962Z,15.98
2016-04-16T06:25:38.981Z,15.43
2016-04-16T06:26:39.328Z,14.86
2016-04-16T06:27:45.314Z,14.53
2016-04-16T06:28:39.050Z,14.37
2016-04-16T06:29:58.273Z,14.34
2016-04-16T06:30:39.088Z,14.4
2016-04-16T06:31:39.122Z,14.58
2016-04-16T06:32:39.140Z,14.53
2016-04-16T06:33:39.158Z,14.61
2016-04-16T06:34:39.177Z,14.63
2016-04-16T06:35:39.273Z,14.36
2016-04-16T06:36:39.214Z,14.22
2016-04-16T06:37:39.247Z,13.97
2016-04-16T06:38:39.282Z,13.83
2016-04-16T06:39:39.330Z,13.64
2016-04-16T06:40:39.333Z,13.4
2016-04-16T06:41:39.196Z,13.26
2016-04-16T06:42:39.371Z,13.12
2016-04-16T06:43:39.374Z,13.01
2016-04-16T06:44:39.641Z,12.88
2016-04-16T06:45:39.441Z,12.91
2016-04-16T06:46:39.303Z,12.93
2016-04-16T06:47:39.477Z,12.86
2016-04-16T06:48:39.480Z,12.87
2016-04-16T06:49:39.186Z,12.87
2016-04-16T06:50:39.564Z,13.11
2016-04-16T06:51:39.535Z,13.4
2016-04-16T06:52:39.585Z,13.82
2016-04-16T06:53:39.572Z,13.97
2016-04-16T06:54:39.621Z,14.16
2016-04-16T06:55:39.749Z,14.51
2016-04-16T06:56:39.673Z,14.66
2016-04-16T06:57:39.895Z,14.81
2016-04-16T06:58:39.695Z,15.04
2016-04-16T06:59:52.463Z,15.18
2016-04-16T07:00:52.481Z,15.12
2016-04-16T07:01:58.953Z,14.99
2016-04-16T07:03:02.096Z,14.67
2016-04-16T07:03:42.911Z,14.43
2016-04-16T07:05:45.604Z,13.98
2016-04-16T07:05:58.197Z,13.95
2016-04-16T07:06:58.232Z,13.83
2016-04-16T07:08:23.924Z,13.62
2016-04-16T07:09:07.799Z,13.7
2016-04-16T07:10:08.021Z,13.7
2016-04-16T07:11:20.574Z,13.8
2016-04-16T07:12:07.996Z,13.85
2016-04-16T07:13:27.062Z,13.7
2016-04-16T07:14:14.500Z,13.65
2016-04-16T07:15:07.894Z,13.54
2016-04-16T07:16:07.927Z,13.46
2016-04-16T07:17:07.977Z,13.33
2016-04-16T07:18:07.996Z,13.42
2016-04-16T07:19:08.014Z,13.2
2016-04-16T07:20:08.017Z,13.08
2016-04-16T07:21:07.972Z,13.13
2016-04-16T07:22:14.584Z,13.09
2016-04-16T07:23:08.134Z,13.19
2016-04-16T07:24:08.089Z,13.23
2016-04-16T07:25:08.123Z,13.19
2016-04-16T07:26:08.142Z,13.24
2016-04-16T07:27:08.176Z,13.21
2016-04-16T07:28:08.194Z,13.33
2016-04-16T07:29:08.228Z,13.19
2016-04-16T07:30:08.356Z,13.06
2016-04-16T07:31:08.250Z,13.01
2016-04-16T07:32:08.284Z,12.94
2016-04-16T07:33:08.317Z,12.93
2016-04-16T07:34:08.336Z,12.84
2016-04-16T07:35:08.353Z,12.84
2016-04-16T07:36:08.388Z,12.84
2016-04-16T07:37:21.143Z,12.91
2016-04-16T07:38:08.393Z,12.98
2016-04-16T07:39:27.632Z,12.91
2016-04-16T07:40:08.445Z,12.9
2016-04-16T07:41:34.342Z,13.05
2016-04-16T07:42:14.748Z,13.08
2016-04-16T07:43:39.815Z,13.23
2016-04-16T07:44:21.271Z,13.16
2016-04-16T07:45:08.552Z,13.19
2016-04-16T07:46:08.571Z,13.46
2016-04-16T07:47:08.574Z,13.6
2016-04-16T07:48:08.608Z,13.85
2016-04-16T07:49:08.641Z,13.95
2016-04-16T07:50:08.644Z,14.07
2016-04-16T07:51:09.287Z,14.22
2016-04-16T07:52:08.696Z,14.31
2016-04-16T07:53:21.452Z,14.31
2016-04-16T07:54:09.327Z,14.38
2016-04-16T07:55:27.957Z,14.48
2016-04-16T07:56:08.770Z,14.62
2016-04-16T07:57:08.788Z,14.77
2016-04-16T07:58:21.699Z,14.93
2016-04-16T07:59:08.824Z,14.94
2016-04-16T08:00:34.581Z,15.02
2016-04-16T08:01:08.893Z,15.04
2016-04-16T08:02:40.241Z,14.93
2016-04-16T08:03:11.944Z,14.97
2016-04-16T08:04:08.963Z,15
2016-04-16T08:05:08.966Z,14.94
2016-04-16T08:06:09.000Z,14.96
2016-04-16T08:07:09.299Z,14.93
2016-04-16T08:08:09.021Z,14.89
2016-04-16T08:09:21.808Z,14.81
2016-04-16T08:10:09.292Z,14.63
2016-04-16T08:11:09.122Z,14.51
2016-04-16T08:12:09.141Z,14.48
2016-04-16T08:13:09.190Z,14.44
2016-04-16T08:14:09.162Z,14.45
2016-04-16T08:15:09.180Z,14.33
2016-04-16T08:16:09.213Z,13.98
2016-04-16T08:17:09.254Z,13.71
2016-04-16T08:18:09.381Z,13.68
2016-04-16T08:19:09.290Z,13.67
2016-04-16T08:20:15.652Z,13.65
2016-04-16T08:21:09.342Z,13.76
2016-04-16T08:22:09.391Z,13.85
2016-04-16T08:23:09.363Z,13.97
2016-04-16T08:24:09.381Z,14.23
2016-04-16T08:25:09.415Z,14.44
2016-04-16T08:26:09.417Z,14.53
2016-04-16T08:27:15.717Z,14.63
2016-04-16T08:28:09.501Z,14.7
2016-04-16T08:29:28.725Z,14.58
2016-04-16T08:30:22.447Z,14.55
2016-04-16T08:31:40.872Z,14.68
2016-04-16T08:32:21.655Z,14.66
2016-04-16T08:34:09.595Z,14.53
2016-04-16T08:35:09.692Z,14.66
2016-04-16T08:36:09.647Z,14.51
2016-04-16T08:37:09.666Z,14.49
2016-04-16T08:38:09.685Z,14.11
2016-04-16T08:39:09.749Z,13.86
2016-04-16T08:40:09.752Z,13.67
2016-04-16T08:41:22.507Z,13.47
2016-04-16T08:42:09.913Z,13.36
2016-04-16T08:43:35.544Z,13.06
2016-04-16T08:44:09.857Z,13.06
2016-04-16T08:45:09.860Z,13.01
2016-04-16T08:46:09.910Z,12.91
2016-04-16T08:47:09.896Z,12.86
2016-04-16T08:48:09.946Z,12.83
2016-04-16T08:49:09.932Z,12.93
2016-04-16T08:50:09.967Z,12.93
2016-04-16T08:51:09.985Z,13.26
2016-04-16T08:52:10.004Z,13.42
2016-04-16T08:53:10.053Z,13.76
2016-04-16T08:54:10.056Z,14.11
2016-04-16T08:55:10.168Z,14.33
2016-04-16T08:56:16.592Z,14.56
2016-04-16T08:57:10.142Z,14.53
2016-04-16T08:58:22.694Z,14.7
2016-04-16T08:59:17.022Z,14.63
2016-04-16T09:00:35.903Z,14.58
2016-04-16T09:01:10.215Z,14.51
2016-04-16T09:02:10.217Z,14.38
2016-04-16T09:03:10.252Z,14.31
2016-04-16T09:04:10.270Z,14.25
2016-04-16T09:05:10.288Z,14.34
2016-04-16T09:06:10.322Z,14.2
2016-04-16T09:07:10.341Z,14.22
2016-04-16T09:08:10.391Z,14.44
2016-04-16T09:09:10.393Z,14.45
2016-04-16T09:10:10.427Z,14.48
2016-04-16T09:11:10.429Z,14.7
2016-04-16T09:12:16.713Z,14.93
2016-04-16T09:13:16.732Z,14.78
2016-04-16T09:14:23.237Z,14.82
2016-04-16T09:15:10.534Z,14.96
2016-04-16T09:16:29.727Z,15.08
2016-04-16T09:17:13.868Z,15.14
2016-04-16T09:18:39.575Z,15.26
2016-04-16T09:19:23.547Z,15.43
2016-04-16T09:20:23.487Z,15.51
2016-04-16T09:21:36.490Z,15.78
2016-04-16T09:22:23.523Z,16.06
2016-04-16T09:23:42.746Z,16.22
2016-04-16T09:24:23.623Z,16.31
2016-04-16T09:25:23.626Z,16.22
2016-04-16T09:26:23.628Z,15.9
2016-04-16T09:27:23.662Z,15.72
2016-04-16T09:28:23.728Z,15.75
2016-04-16T09:29:55.028Z,15.57
2016-04-16T09:30:38.906Z,15.57
2016-04-16T09:31:38.939Z,15.37
2016-04-16T09:32:51.723Z,15.41
2016-04-16T09:33:45.256Z,15.45
2016-04-16T09:34:58.228Z,15.48
2016-04-16T09:35:48.371Z,15.48
2016-04-16T09:37:07.811Z,15.6
2016-04-16T09:38:01.361Z,15.54
2016-04-16T09:39:13.489Z,15.57
2016-04-16T09:39:42.211Z,15.51
2016-04-16T09:40:42.197Z,15.6
2016-04-16T09:41:54.982Z,15.72
2016-04-16T09:42:42.280Z,15.81
2016-04-16T09:43:42.330Z,15.96
2016-04-16T09:44:42.317Z,16.31
2016-04-16T09:45:55.210Z,16.36
2016-04-16T09:46:48.620Z,16.55
2016-04-16T09:48:01.654Z,16.62
2016-04-16T09:48:58.281Z,16.55
2016-04-16T09:50:04.753Z,16.59
2016-04-16T09:50:45.881Z,16.54
2016-04-16T09:52:05.055Z,16.44
2016-04-16T09:52:45.637Z,16.32
2016-04-16T09:53:45.810Z,16.22
2016-04-16T09:54:46.142Z,16.21
2016-04-16T09:55:52.128Z,16.29
2016-04-16T09:56:45.881Z,16.24
2016-04-16T09:57:58.571Z,16.31
2016-04-16T09:58:52.198Z,16.32
2016-04-16T10:00:11.498Z,16.25
2016-04-16T10:00:47.250Z,16.28
2016-04-16T10:02:11.504Z,16.39
2016-04-16T10:02:45.882Z,16.49
2016-04-16T10:05:01.214Z,16.41
2016-04-16T10:06:01.108Z,16.62
2016-04-16T10:07:32.442Z,16.83
2016-04-16T10:08:16.348Z,16.8
2016-04-16T10:09:16.351Z,16.76
2016-04-16T10:10:16.385Z,16.61
2016-04-16T10:11:16.403Z,16.44
2016-04-16T10:12:17.016Z,16.22
2016-04-16T10:13:16.471Z,15.98
2016-04-16T10:14:35.680Z,15.54
2016-04-16T10:15:16.508Z,15.52
2016-04-16T10:16:42.216Z,15.47
2016-04-16T10:17:16.544Z,15.47
2016-04-16T10:18:47.331Z,15.48
2016-04-16T10:19:22.849Z,15.5
2016-04-16T10:20:16.615Z,15.45
2016-04-16T10:21:16.617Z,15.39
2016-04-16T10:22:16.651Z,15.33
2016-04-16T10:23:16.701Z,15.32
2016-04-16T10:24:16.735Z,15.32
2016-04-16T10:25:16.738Z,15.29
2016-04-16T10:26:16.787Z,15.25
2016-04-16T10:27:16.774Z,15.3
2016-04-16T10:28:16.808Z,15.37
2016-04-16T10:29:16.811Z,15.36
2016-04-16T10:30:29.597Z,15.36
2016-04-16T10:31:16.863Z,15.23
2016-04-16T10:32:16.881Z,15.25
2016-04-16T10:33:16.931Z,15.27
2016-04-16T10:34:16.949Z,15.23
2016-04-16T10:35:29.705Z,15.14
2016-04-16T10:36:23.270Z,15.23
2016-04-16T10:37:36.320Z,15.27
2016-04-16T10:38:17.039Z,15.25
2016-04-16T10:39:17.041Z,15.23
2016-04-16T10:40:36.280Z,15.37
2016-04-16T10:41:17.186Z,15.52
2016-04-16T10:42:42.786Z,15.57
2016-04-16T10:43:26.789Z,15.52
2016-04-16T10:44:26.822Z,15.59
2016-04-16T10:45:26.825Z,15.54
2016-04-16T10:46:26.860Z,15.37
2016-04-16T10:47:26.877Z,15.45
2016-04-16T10:48:26.880Z,15.27
2016-04-16T10:49:26.945Z,15.35
2016-04-16T10:50:27.042Z,15.36
2016-04-16T10:51:26.965Z,15.52
2016-04-16T10:52:27.031Z,15.59
2016-04-16T10:53:27.018Z,15.72
2016-04-16T10:54:27.037Z,15.78
2016-04-16T10:55:27.055Z,15.96
2016-04-16T10:56:33.370Z,16.24
2016-04-16T10:57:27.139Z,16.47
2016-04-16T10:58:27.126Z,16.68
2016-04-16T10:59:27.192Z,16.59
2016-04-16T11:00:27.163Z,16.54
2016-04-16T11:01:39.931Z,16.69
2016-04-16T11:02:27.246Z,16.79
2016-04-16T11:03:27.248Z,16.97
2016-04-16T11:04:27.267Z,16.95
2016-04-16T11:05:27.332Z,17.04
2016-04-16T11:06:27.303Z,17.13
2016-04-16T11:07:27.338Z,17.28
2016-04-16T11:08:27.356Z,17.1
2016-04-16T11:09:27.375Z,17.17
2016-04-16T11:10:27.408Z,17.27
2016-04-16T11:11:27.458Z,17.28
2016-04-16T11:12:27.460Z,17.24
2016-04-16T11:13:27.479Z,17.19
2016-04-16T11:14:27.621Z,17.37
2016-04-16T11:15:27.530Z,17.47
2016-04-16T11:16:27.690Z,17.76
2016-04-16T11:17:27.568Z,17.69
2016-04-16T11:18:27.585Z,17.6
2016-04-16T11:19:27.604Z,17.56
2016-04-16T11:20:27.638Z,17.39
2016-04-16T11:21:27.704Z,17.07
2016-04-16T11:22:34.018Z,16.89
2016-04-16T11:23:27.787Z,16.89
2016-04-16T11:24:27.759Z,16.72
2016-04-16T11:25:27.917Z,16.44
2016-04-16T11:26:27.810Z,16.46
2016-04-16T11:27:27.829Z,16.28
2016-04-16T11:28:27.847Z,16.36
2016-04-16T11:29:40.600Z,16.22
2016-04-16T11:30:27.899Z,16.16
2016-04-16T11:31:47.215Z,16.02
2016-04-16T11:32:56.983Z,16.06
2016-04-16T11:33:40.845Z,15.98
2016-04-16T11:34:40.879Z,15.92
2016-04-16T11:36:06.350Z,15.84
2016-04-16T11:36:50.244Z,15.7
2016-04-16T11:37:59.809Z,15.5
2016-04-16T11:38:59.811Z,15.25
2016-04-16T11:40:02.908Z,15.25
2016-04-16T11:41:02.927Z,15.17
2016-04-16T11:42:02.960Z,15.11
2016-04-16T11:43:15.791Z,14.85
2016-04-16T11:44:09.263Z,14.78
2016-04-16T11:45:28.705Z,14.56
2016-04-16T11:46:03.033Z,14.38
2016-04-16T11:47:34.351Z,14.44
2016-04-16T11:48:12.616Z,14.31
2016-04-16T11:49:12.604Z,14.25
2016-04-16T11:50:18.919Z,14.38
2016-04-16T11:51:18.981Z,14.45
2016-04-16T11:52:32.028Z,14.67
2016-04-16T11:53:44.199Z,14.97
2016-04-16T11:54:35.230Z,15.19
2016-04-16T11:55:16.059Z,15.18
2016-04-16T11:56:35.300Z,15.32
2016-04-16T11:57:16.143Z,15.39
2016-04-16T11:58:16.177Z,15.52
2016-04-16T11:59:16.212Z,15.65
2016-04-16T12:00:29.113Z,15.65
2016-04-16T12:01:16.253Z,15.6
2016-04-16T12:02:35.506Z,15.78
2016-04-16T12:03:51.357Z,15.96
2016-04-16T12:04:32.179Z,16.18
2016-04-16T12:05:57.886Z,16.28
2016-04-16T12:06:39.172Z,16.39
2016-04-16T12:08:57.698Z,16.69
2016-04-16T12:09:57.704Z,16.57
2016-04-16T12:11:16.941Z,16.61
2016-04-16T12:12:10.508Z,16.59
2016-04-16T12:13:29.092Z,16.69
2016-04-16T12:14:17.092Z,16.74
2016-04-16T12:15:29.755Z,16.83
2016-04-16T12:16:23.521Z,16.94
2016-04-16T12:18:23.559Z,16.82
2016-04-16T12:19:07.436Z,16.95
2016-04-16T12:20:26.692Z,17.05
2016-04-16T12:21:15.161Z,17.02
2016-04-16T12:22:28.322Z,17.04
2016-04-16T12:23:33.216Z,16.86
2016-04-16T12:24:36.281Z,16.47
2016-04-16T12:25:39.487Z,16.17
2016-04-16T12:26:20.347Z,16.03
2016-04-16T12:27:07.630Z,15.83
2016-04-16T12:28:20.383Z,15.59
2016-04-16T12:29:46.075Z,15.43
2016-04-16T12:30:24.497Z,15.39
2016-04-16T12:31:55.660Z,15.85
2016-04-16T12:32:39.538Z,16.1
2016-04-16T12:33:39.555Z,16.44
2016-04-16T12:34:41.010Z,16.46
2016-04-16T12:35:41.030Z,16.68
2016-04-16T12:36:52.376Z,16.87
2016-04-16T12:37:39.660Z,16.99
2016-04-16T12:38:39.679Z,16.92
2016-04-16T12:39:39.696Z,17.02
2016-04-16T12:40:52.887Z,17.16
2016-04-16T12:41:40.405Z,17.14
2016-04-16T12:42:59.001Z,17.28
2016-04-16T12:43:40.613Z,17.27
2016-04-16T12:45:38.212Z,17.54
2016-04-16T12:46:16.493Z,17.57
2016-04-16T12:47:03.559Z,17.68
2016-04-16T12:48:22.202Z,17.54
2016-04-16T12:49:00.456Z,17.47
2016-04-16T12:50:31.820Z,17.22
2016-04-16T12:51:15.695Z,17.04
2016-04-16T12:53:51.047Z,16.74
2016-04-16T12:54:25.406Z,16.57
2016-04-16T12:55:58.145Z,16.22
2016-04-16T12:56:31.727Z,16.13
2016-04-16T12:57:25.477Z,16.03
2016-04-16T12:58:25.494Z,16.18
2016-04-16T12:59:31.781Z,16.28
2016-04-16T13:00:25.547Z,16.26
2016-04-16T13:01:44.771Z,16.43
2016-04-16T13:02:31.711Z,16.37
2016-04-16T13:03:47.901Z,16.57
2016-04-16T13:05:31.313Z,16.66
2016-04-16T13:06:03.297Z,16.79
2016-04-16T13:07:03.347Z,16.83
2016-04-16T13:08:03.349Z,16.94
2016-04-16T13:09:16.102Z,17.05
2016-04-16T13:10:09.652Z,17.32
2016-04-16T13:11:29.110Z,17.54
2016-04-16T13:12:14.423Z,17.65
2016-04-16T13:13:40.162Z,17.46
2016-04-16T13:14:14.475Z,17.24
2016-04-16T13:15:47.215Z,16.97
2016-04-16T13:16:20.418Z,16.92
2016-04-16T13:18:21.642Z,16.65
2016-04-16T13:18:34.582Z,16.68
2016-04-16T13:19:34.492Z,16.69
2016-04-16T13:21:00.151Z,16.83
2016-04-16T13:21:47.575Z,16.92
2016-04-16T13:23:10.234Z,16.84
2016-04-16T13:24:18.909Z,16.92
2016-04-16T13:25:15.911Z,16.94
2016-04-16T13:25:54.226Z,16.99
2016-04-16T13:26:54.183Z,16.84
2016-04-16T13:28:26.153Z,16.66